sensor_id;sensor_type;location;lat;lon;timestamp;temperature;humidity
6930;DHT22;3504;52.616;13.238;2023-06-04T00:01:10;10.76;53.28
6930;DHT22;3504;52.616;13.238;2023-06-04T00:06:11;10.71;54.23
6930;DHT22;3504;52.616;13.238;2023-06-04T00:11:11;10.65;53.46
6930;DHT22;3504;52.616;13.238;2023-06-04T00:16:12;10.61;53.52
6930;DHT22;3504;52.616;13.238;2023-06-04T00:21:12;10.54;54.12
6930;DHT22;3504;52.616;13.238;2023-06-04T00:26:13;10.41;54.52
6930;DHT22;3504;52.616;13.238;2023-06-04T00:31:18;10.33;55.70
6930;DHT22;3504;52.616;13.238;2023-06-04T00:36:18;10.20;55.23
6930;DHT22;3504;52.616;13.238;2023-06-04T00:41:19;10.07;56.19
6930;DHT22;3504;52.616;13.238;2023-06-04T00:46:21;10.02;56.54
6930;DHT22;3504;52.616;13.238;2023-06-04T00:51:22;9.87;57.45
6930;DHT22;3504;52.616;13.238;2023-06-04T00:56:23;9.79;57.85
6930;DHT22;3504;52.616;13.238;2023-06-04T01:01:31;9.65;57.69
6930;DHT22;3504;52.616;13.238;2023-06-04T01:06:44;9.55;59.27
6930;DHT22;3504;52.616;13.238;2023-06-04T01:11:45;9.46;59.03
6930;DHT22;3504;52.616;13.238;2023-06-04T01:16:54;9.36;59.24
6930;DHT22;3504;52.616;13.238;2023-06-04T01:22:07;9.25;59.62
6930;DHT22;3504;52.616;13.238;2023-06-04T01:27:09;9.20;58.80
6930;DHT22;3504;52.616;13.238;2023-06-04T01:32:10;9.20;59.93
6930;DHT22;3504;52.616;13.238;2023-06-04T01:37:10;9.07;60.00
6930;DHT22;3504;52.616;13.238;2023-06-04T01:42:11;9.03;59.66
6930;DHT22;3504;52.616;13.238;2023-06-04T01:47:12;9.00;59.96
6930;DHT22;3504;52.616;13.238;2023-06-04T01:52:12;8.86;61.47
6930;DHT22;3504;52.616;13.238;2023-06-04T01:57:13;8.76;60.88
6930;DHT22;3504;52.616;13.238;2023-06-04T02:02:14;8.71;61.35
6930;DHT22;3504;52.616;13.238;2023-06-04T02:07:15;8.67;60.85
6930;DHT22;3504;52.616;13.238;2023-06-04T02:12:18;8.64;60.41
6930;DHT22;3504;52.616;13.238;2023-06-04T02:17:18;8.54;61.71
6930;DHT22;3504;52.616;13.238;2023-06-04T02:22:19;8.48;61.68
6930;DHT22;3504;52.616;13.238;2023-06-04T02:27:20;8.38;62.62
6930;DHT22;3504;52.616;13.238;2023-06-04T02:32:20;8.26;62.39
6930;DHT22;3504;52.616;13.238;2023-06-04T02:37:21;8.22;61.67
6930;DHT22;3504;52.616;13.238;2023-06-04T02:42:22;8.11;63.02
6930;DHT22;3504;52.616;13.238;2023-06-04T02:47:23;8.04;63.09
6930;DHT22;3504;52.616;13.238;2023-06-04T02:52:23;7.99;62.68
6930;DHT22;3504;52.616;13.238;2023-06-04T02:57:25;7.95;63.45
6930;DHT22;3504;52.616;13.238;2023-06-04T03:02:26;7.91;63.73
6930;DHT22;3504;52.616;13.238;2023-06-04T03:07:28;7.87;62.79
6930;DHT22;3504;52.616;13.238;2023-06-04T03:12:28;7.87;63.70
6930;DHT22;3504;52.616;13.238;2023-06-04T03:17:29;7.74;64.25
6930;DHT22;3504;52.616;13.238;2023-06-04T03:22:31;7.73;63.66
6930;DHT22;3504;52.616;13.238;2023-06-04T03:27:34;7.65;65.40
6930;DHT22;3504;52.616;13.238;2023-06-04T03:32:35;7.63;64.75
6930;DHT22;3504;52.616;13.238;2023-06-04T03:37:36;7.63;66.18
6930;DHT22;3504;52.616;13.238;2023-06-04T03:42:36;7.60;66.42
6930;DHT22;3504;52.616;13.238;2023-06-04T03:47:40;7.64;65.31
6930;DHT22;3504;52.616;13.238;2023-06-04T03:52:42;7.65;66.46
6930;DHT22;3504;52.616;13.238;2023-06-04T03:57:43;7.65;66.36
6930;DHT22;3504;52.616;13.238;2023-06-04T04:02:43;7.63;66.90
6930;DHT22;3504;52.616;13.238;2023-06-04T04:07:52;7.70;66.97
6930;DHT22;3504;52.616;13.238;2023-06-04T04:12:58;7.78;67.19
6930;DHT22;3504;52.616;13.238;2023-06-04T04:18:00;7.84;66.90
6930;DHT22;3504;52.616;13.238;2023-06-04T04:23:03;7.88;66.93
6930;DHT22;3504;52.616;13.238;2023-06-04T04:28:05;7.98;66.71
6930;DHT22;3504;52.616;13.238;2023-06-04T04:33:10;8.12;66.65
6930;DHT22;3504;52.616;13.238;2023-06-04T04:38:20;8.28;65.80
6930;DHT22;3504;52.616;13.238;2023-06-04T04:43:31;8.42;66.46
6930;DHT22;3504;52.616;13.238;2023-06-04T04:48:35;8.56;66.45
6930;DHT22;3504;52.616;13.238;2023-06-04T04:53:35;8.71;66.36
6930;DHT22;3504;52.616;13.238;2023-06-04T04:58:37;8.84;65.97
6930;DHT22;3504;52.616;13.238;2023-06-04T05:03:37;9.08;64.92
6930;DHT22;3504;52.616;13.238;2023-06-04T05:08:38;9.34;65.28
6930;DHT22;3504;52.616;13.238;2023-06-04T05:13:39;9.61;64.23
6930;DHT22;3504;52.616;13.238;2023-06-04T05:18:42;9.83;64.13
6930;DHT22;3504;52.616;13.238;2023-06-04T05:23:47;10.09;64.15
6930;DHT22;3504;52.616;13.238;2023-06-04T05:28:49;10.35;64.18
6930;DHT22;3504;52.616;13.238;2023-06-04T05:33:50;10.64;63.55
6930;DHT22;3504;52.616;13.238;2023-06-04T05:38:53;10.97;63.03
6930;DHT22;3504;52.616;13.238;2023-06-04T05:43:59;11.47;63.36
6930;DHT22;3504;52.616;13.238;2023-06-04T05:48:59;12.02;62.74
6930;DHT22;3504;52.616;13.238;2023-06-04T05:54:02;12.91;61.61
6930;DHT22;3504;52.616;13.238;2023-06-04T05:59:04;13.76;57.35
6930;DHT22;3504;52.616;13.238;2023-06-04T06:04:05;14.60;55.60
6930;DHT22;3504;52.616;13.238;2023-06-04T06:09:06;15.37;54.02
6930;DHT22;3504;52.616;13.238;2023-06-04T06:14:08;16.11;51.19
6930;DHT22;3504;52.616;13.238;2023-06-04T06:19:09;16.76;48.79
6930;DHT22;3504;52.616;13.238;2023-06-04T06:24:12;17.24;45.12
6930;DHT22;3504;52.616;13.238;2023-06-04T06:29:13;17.64;44.69
6930;DHT22;3504;52.616;13.238;2023-06-04T06:34:13;17.83;40.15
6930;DHT22;3504;52.616;13.238;2023-06-04T06:39:14;18.27;41.10
6930;DHT22;3504;52.616;13.238;2023-06-04T06:44:15;18.72;38.76
6930;DHT22;3504;52.616;13.238;2023-06-04T06:49:15;19.22;39.93
6930;DHT22;3504;52.616;13.238;2023-06-04T06:54:16;19.54;37.91
6930;DHT22;3504;52.616;13.238;2023-06-04T06:59:17;19.83;37.07
6930;DHT22;3504;52.616;13.238;2023-06-04T07:04:17;20.18;34.26
6930;DHT22;3504;52.616;13.238;2023-06-04T07:09:18;20.41;35.13
6930;DHT22;3504;52.616;13.238;2023-06-04T07:14:18;20.33;33.57
6930;DHT22;3504;52.616;13.238;2023-06-04T07:19:19;20.46;34.14
6930;DHT22;3504;52.616;13.238;2023-06-04T07:24:19;20.41;31.96
6930;DHT22;3504;52.616;13.238;2023-06-04T07:29:20;20.71;34.12
6930;DHT22;3504;52.616;13.238;2023-06-04T07:34:20;20.89;33.64
6930;DHT22;3504;52.616;13.238;2023-06-04T07:39:21;21.07;31.44
6930;DHT22;3504;52.616;13.238;2023-06-04T07:44:22;21.18;33.87
6930;DHT22;3504;52.616;13.238;2023-06-04T07:49:23;21.43;32.33
6930;DHT22;3504;52.616;13.238;2023-06-04T07:54:23;21.38;32.13
6930;DHT22;3504;52.616;13.238;2023-06-04T07:59:24;21.57;31.37
6930;DHT22;3504;52.616;13.238;2023-06-04T08:04:25;21.62;30.54
6930;DHT22;3504;52.616;13.238;2023-06-04T08:09:26;21.38;28.83
6930;DHT22;3504;52.616;13.238;2023-06-04T08:14:26;21.34;28.80
6930;DHT22;3504;52.616;13.238;2023-06-04T08:19:27;21.74;30.45
6930;DHT22;3504;52.616;13.238;2023-06-04T08:24:28;21.99;26.82
6930;DHT22;3504;52.616;13.238;2023-06-04T08:29:28;21.98;28.10
6930;DHT22;3504;52.616;13.238;2023-06-04T08:34:29;22.27;27.13
6930;DHT22;3504;52.616;13.238;2023-06-04T08:39:30;22.22;26.57
6930;DHT22;3504;52.616;13.238;2023-06-04T08:44:31;22.27;27.77
6930;DHT22;3504;52.616;13.238;2023-06-04T08:49:35;22.64;28.30
6930;DHT22;3504;52.616;13.238;2023-06-04T08:54:39;23.15;28.37
6930;DHT22;3504;52.616;13.238;2023-06-04T08:59:39;23.35;26.41
6930;DHT22;3504;52.616;13.238;2023-06-04T09:04:40;23.55;26.71
6930;DHT22;3504;52.616;13.238;2023-06-04T09:09:45;23.34;25.37
6930;DHT22;3504;52.616;13.238;2023-06-04T09:14:47;23.39;25.53
6930;DHT22;3504;52.616;13.238;2023-06-04T09:19:48;23.67;26.38
6930;DHT22;3504;52.616;13.238;2023-06-04T09:24:49;23.78;24.87
6930;DHT22;3504;52.616;13.238;2023-06-04T09:29:57;23.93;25.15
6930;DHT22;3504;52.616;13.238;2023-06-04T09:35:17;24.37;25.67
6930;DHT22;3504;52.616;13.238;2023-06-04T09:40:18;24.48;25.55
6930;DHT22;3504;52.616;13.238;2023-06-04T09:45:27;24.79;24.32
6930;DHT22;3504;52.616;13.238;2023-06-04T09:50:33;25.06;24.45
6930;DHT22;3504;52.616;13.238;2023-06-04T09:55:34;25.13;25.03
6930;DHT22;3504;52.616;13.238;2023-06-04T10:00:35;25.30;24.23
6930;DHT22;3504;52.616;13.238;2023-06-04T10:05:36;25.51;24.33
6930;DHT22;3504;52.616;13.238;2023-06-04T10:10:39;25.67;23.89
6930;DHT22;3504;52.616;13.238;2023-06-04T10:15:40;25.94;24.07
6930;DHT22;3504;52.616;13.238;2023-06-04T10:20:42;25.88;24.41
6930;DHT22;3504;52.616;13.238;2023-06-04T10:25:42;25.80;24.05
6930;DHT22;3504;52.616;13.238;2023-06-04T10:30:43;25.71;22.50
6930;DHT22;3504;52.616;13.238;2023-06-04T10:35:44;25.88;24.24
6930;DHT22;3504;52.616;13.238;2023-06-04T10:40:44;26.22;22.97
6930;DHT22;3504;52.616;13.238;2023-06-04T10:45:45;26.36;23.97
6930;DHT22;3504;52.616;13.238;2023-06-04T10:50:51;26.60;22.66
6930;DHT22;3504;52.616;13.238;2023-06-04T10:55:52;26.52;22.10
6930;DHT22;3504;52.616;13.238;2023-06-04T11:00:53;26.56;22.19
6930;DHT22;3504;52.616;13.238;2023-06-04T11:05:53;26.55;22.75
6930;DHT22;3504;52.616;13.238;2023-06-04T11:10:54;26.75;23.18
6930;DHT22;3504;52.616;13.238;2023-06-04T11:15:57;26.76;23.10
6930;DHT22;3504;52.616;13.238;2023-06-04T11:21:00;26.56;22.15
6930;DHT22;3504;52.616;13.238;2023-06-04T11:26:01;26.65;23.37
6930;DHT22;3504;52.616;13.238;2023-06-04T11:31:03;26.93;22.55
6930;DHT22;3504;52.616;13.238;2023-06-04T11:36:03;26.39;21.32
6930;DHT22;3504;52.616;13.238;2023-06-04T11:41:04;26.09;22.02
6930;DHT22;3504;52.616;13.238;2023-06-04T11:46:06;26.28;20.69
6930;DHT22;3504;52.616;13.238;2023-06-04T11:51:07;26.22;23.24
6930;DHT22;3504;52.616;13.238;2023-06-04T11:56:09;26.46;21.09
6930;DHT22;3504;52.616;13.238;2023-06-04T12:01:10;26.21;21.67
6930;DHT22;3504;52.616;13.238;2023-06-04T12:06:17;26.21;23.43
6930;DHT22;3504;52.616;13.238;2023-06-04T12:16:34;26.15;21.67
6930;DHT22;3504;52.616;13.238;2023-06-04T12:21:34;26.17;23.38
6930;DHT22;3504;52.616;13.238;2023-06-04T12:26:36;26.32;22.77
6930;DHT22;3504;52.616;13.238;2023-06-04T12:31:45;26.29;22.94
6930;DHT22;3504;52.616;13.238;2023-06-04T12:36:45;26.46;22.52
6930;DHT22;3504;52.616;13.238;2023-06-04T12:41:46;25.78;22.25
6930;DHT22;3504;52.616;13.238;2023-06-04T12:46:47;26.00;23.77
6930;DHT22;3504;52.616;13.238;2023-06-04T12:51:47;25.98;24.12
6930;DHT22;3504;52.616;13.238;2023-06-04T12:56:48;26.26;22.51
6930;DHT22;3504;52.616;13.238;2023-06-04T13:01:49;26.12;22.64
6930;DHT22;3504;52.616;13.238;2023-06-04T13:06:53;26.01;22.94
6930;DHT22;3504;52.616;13.238;2023-06-04T13:11:58;26.15;22.48
6930;DHT22;3504;52.616;13.238;2023-06-04T13:17:00;26.25;22.64
6930;DHT22;3504;52.616;13.238;2023-06-04T13:22:01;26.38;21.91
6930;DHT22;3504;52.616;13.238;2023-06-04T13:27:01;26.55;24.56
6930;DHT22;3504;52.616;13.238;2023-06-04T13:32:02;26.41;21.48
6930;DHT22;3504;52.616;13.238;2023-06-04T13:37:02;26.24;22.09
6930;DHT22;3504;52.616;13.238;2023-06-04T13:42:03;26.36;23.73
6930;DHT22;3504;52.616;13.238;2023-06-04T13:47:04;26.06;21.97
6930;DHT22;3504;52.616;13.238;2023-06-04T13:52:05;26.12;22.92
6930;DHT22;3504;52.616;13.238;2023-06-04T13:57:06;26.01;21.63
6930;DHT22;3504;52.616;13.238;2023-06-04T14:02:06;25.81;22.13
6930;DHT22;3504;52.616;13.238;2023-06-04T14:07:07;25.67;23.13
6930;DHT22;3504;52.616;13.238;2023-06-04T14:12:08;25.66;22.94
6930;DHT22;3504;52.616;13.238;2023-06-04T14:17:08;25.63;22.44
6930;DHT22;3504;52.616;13.238;2023-06-04T14:22:10;25.74;23.45
6930;DHT22;3504;52.616;13.238;2023-06-04T14:27:11;25.85;22.98
6930;DHT22;3504;52.616;13.238;2023-06-04T14:32:13;25.75;22.23
6930;DHT22;3504;52.616;13.238;2023-06-04T14:37:13;25.87;23.23
6930;DHT22;3504;52.616;13.238;2023-06-04T14:42:14;25.75;22.70
6930;DHT22;3504;52.616;13.238;2023-06-04T14:47:15;25.71;23.14
6930;DHT22;3504;52.616;13.238;2023-06-04T14:52:16;25.78;22.62
6930;DHT22;3504;52.616;13.238;2023-06-04T14:57:16;25.62;22.32
6930;DHT22;3504;52.616;13.238;2023-06-04T15:02:19;25.56;23.71
6930;DHT22;3504;52.616;13.238;2023-06-04T15:07:22;25.60;23.60
6930;DHT22;3504;52.616;13.238;2023-06-04T15:12:25;25.64;24.08
6930;DHT22;3504;52.616;13.238;2023-06-04T15:17:26;25.67;23.61
6930;DHT22;3504;52.616;13.238;2023-06-04T15:22:27;25.71;22.69
6930;DHT22;3504;52.616;13.238;2023-06-04T15:27:28;25.49;23.14
6930;DHT22;3504;52.616;13.238;2023-06-04T15:32:28;25.42;23.62
6930;DHT22;3504;52.616;13.238;2023-06-04T15:37:31;25.53;24.52
6930;DHT22;3504;52.616;13.238;2023-06-04T15:42:32;25.59;23.93
6930;DHT22;3504;52.616;13.238;2023-06-04T15:47:33;25.62;26.76
6930;DHT22;3504;52.616;13.238;2023-06-04T15:52:34;25.57;24.03
6930;DHT22;3504;52.616;13.238;2023-06-04T15:57:34;25.47;24.01
6930;DHT22;3504;52.616;13.238;2023-06-04T16:02:35;25.37;23.74
6930;DHT22;3504;52.616;13.238;2023-06-04T16:07:36;25.33;24.42
6930;DHT22;3504;52.616;13.238;2023-06-04T16:12:36;25.22;24.18
6930;DHT22;3504;52.616;13.238;2023-06-04T16:17:37;25.26;24.51
6930;DHT22;3504;52.616;13.238;2023-06-04T16:22:38;25.27;25.19
6930;DHT22;3504;52.616;13.238;2023-06-04T16:27:38;25.08;24.24
6930;DHT22;3504;52.616;13.238;2023-06-04T16:32:39;25.01;24.00
6930;DHT22;3504;52.616;13.238;2023-06-04T16:37:40;24.78;24.69
6930;DHT22;3504;52.616;13.238;2023-06-04T16:42:40;24.57;23.82
6930;DHT22;3504;52.616;13.238;2023-06-04T16:47:41;24.60;25.20
6930;DHT22;3504;52.616;13.238;2023-06-04T16:52:42;24.55;25.24
6930;DHT22;3504;52.616;13.238;2023-06-04T16:57:43;24.39;25.34
6930;DHT22;3504;52.616;13.238;2023-06-04T17:02:46;24.33;25.09
6930;DHT22;3504;52.616;13.238;2023-06-04T17:07:47;24.18;27.18
6930;DHT22;3504;52.616;13.238;2023-06-04T17:12:47;24.04;25.65
6930;DHT22;3504;52.616;13.238;2023-06-04T17:17:49;23.94;26.04
6930;DHT22;3504;52.616;13.238;2023-06-04T17:22:49;23.82;26.29
6930;DHT22;3504;52.616;13.238;2023-06-04T17:27:50;23.66;27.50
6930;DHT22;3504;52.616;13.238;2023-06-04T17:32:51;23.52;27.04
6930;DHT22;3504;52.616;13.238;2023-06-04T17:37:51;23.34;27.89
6930;DHT22;3504;52.616;13.238;2023-06-04T17:42:52;23.12;27.74
6930;DHT22;3504;52.616;13.238;2023-06-04T17:47:52;22.99;27.62
6930;DHT22;3504;52.616;13.238;2023-06-04T17:52:53;22.90;28.21
6930;DHT22;3504;52.616;13.238;2023-06-04T17:57:53;22.74;27.69
6930;DHT22;3504;52.616;13.238;2023-06-04T18:02:55;22.66;30.02
6930;DHT22;3504;52.616;13.238;2023-06-04T18:07:56;22.52;29.66
6930;DHT22;3504;52.616;13.238;2023-06-04T18:12:56;22.39;29.50
6930;DHT22;3504;52.616;13.238;2023-06-04T18:17:59;22.25;30.42
6930;DHT22;3504;52.616;13.238;2023-06-04T18:23:00;22.10;30.25
6930;DHT22;3504;52.616;13.238;2023-06-04T18:28:00;21.98;31.45
6930;DHT22;3504;52.616;13.238;2023-06-04T18:33:03;21.75;32.05
6930;DHT22;3504;52.616;13.238;2023-06-04T18:38:04;21.54;32.89
6930;DHT22;3504;52.616;13.238;2023-06-04T18:43:06;21.37;33.54
6930;DHT22;3504;52.616;13.238;2023-06-04T18:48:07;21.20;33.24
6930;DHT22;3504;52.616;13.238;2023-06-04T18:53:08;21.04;32.81
6930;DHT22;3504;52.616;13.238;2023-06-04T18:58:08;20.93;33.14
6930;DHT22;3504;52.616;13.238;2023-06-04T19:03:09;20.75;33.55
6930;DHT22;3504;52.616;13.238;2023-06-04T19:08:09;20.57;34.54
6930;DHT22;3504;52.616;13.238;2023-06-04T19:13:12;20.38;35.05
6930;DHT22;3504;52.616;13.238;2023-06-04T19:18:13;20.20;36.09
6930;DHT22;3504;52.616;13.238;2023-06-04T19:23:14;19.96;36.50
6930;DHT22;3504;52.616;13.238;2023-06-04T19:28:14;19.77;35.73
6930;DHT22;3504;52.616;13.238;2023-06-04T19:33:16;19.59;37.11
6930;DHT22;3504;52.616;13.238;2023-06-04T19:38:17;19.38;37.16
6930;DHT22;3504;52.616;13.238;2023-06-04T19:43:18;19.15;37.80
6930;DHT22;3504;52.616;13.238;2023-06-04T19:48:20;18.94;38.59
6930;DHT22;3504;52.616;13.238;2023-06-04T19:53:20;18.74;39.11
6930;DHT22;3504;52.616;13.238;2023-06-04T19:58:21;18.57;39.96
6930;DHT22;3504;52.616;13.238;2023-06-04T20:03:22;18.46;40.32
6930;DHT22;3504;52.616;13.238;2023-06-04T20:08:23;18.28;41.39
6930;DHT22;3504;52.616;13.238;2023-06-04T20:13:23;18.13;40.72
6930;DHT22;3504;52.616;13.238;2023-06-04T20:18:24;17.97;41.24
6930;DHT22;3504;52.616;13.238;2023-06-04T20:23:28;17.83;41.76
6930;DHT22;3504;52.616;13.238;2023-06-04T20:28:29;17.69;41.70
6930;DHT22;3504;52.616;13.238;2023-06-04T20:33:30;17.51;41.36
6930;DHT22;3504;52.616;13.238;2023-06-04T20:38:31;17.31;42.10
6930;DHT22;3504;52.616;13.238;2023-06-04T20:43:51;17.20;42.71
6930;DHT22;3504;52.616;13.238;2023-06-04T20:48:51;17.10;43.78
6930;DHT22;3504;52.616;13.238;2023-06-04T20:53:52;16.96;44.48
6930;DHT22;3504;52.616;13.238;2023-06-04T20:58:53;16.87;43.66
6930;DHT22;3504;52.616;13.238;2023-06-04T21:03:53;16.80;43.78
6930;DHT22;3504;52.616;13.238;2023-06-04T21:08:54;16.69;44.04
6930;DHT22;3504;52.616;13.238;2023-06-04T21:13:57;16.62;44.44
6930;DHT22;3504;52.616;13.238;2023-06-04T21:18:58;16.51;45.11
6930;DHT22;3504;52.616;13.238;2023-06-04T21:23:58;16.35;46.98
6930;DHT22;3504;52.616;13.238;2023-06-04T21:28:59;16.21;47.40
6930;DHT22;3504;52.616;13.238;2023-06-04T21:33:59;16.08;46.61
6930;DHT22;3504;52.616;13.238;2023-06-04T21:39:00;15.92;47.78
6930;DHT22;3504;52.616;13.238;2023-06-04T21:44:00;15.74;48.51
6930;DHT22;3504;52.616;13.238;2023-06-04T21:49:00;15.63;48.48
6930;DHT22;3504;52.616;13.238;2023-06-04T21:54:01;15.51;49.58
6930;DHT22;3504;52.616;13.238;2023-06-04T21:59:03;15.35;49.76
6930;DHT22;3504;52.616;13.238;2023-06-04T22:04:03;15.20;50.46
6930;DHT22;3504;52.616;13.238;2023-06-04T22:09:03;15.06;50.59
6930;DHT22;3504;52.616;13.238;2023-06-04T22:14:04;14.95;50.98
6930;DHT22;3504;52.616;13.238;2023-06-04T22:19:05;14.82;51.62
6930;DHT22;3504;52.616;13.238;2023-06-04T22:24:05;14.67;52.70
6930;DHT22;3504;52.616;13.238;2023-06-04T22:29:06;14.57;53.43
6930;DHT22;3504;52.616;13.238;2023-06-04T22:34:06;14.42;52.29
6930;DHT22;3504;52.616;13.238;2023-06-04T22:39:07;14.31;52.93
6930;DHT22;3504;52.616;13.238;2023-06-04T22:44:08;14.21;53.34
6930;DHT22;3504;52.616;13.238;2023-06-04T22:49:08;14.10;53.33
6930;DHT22;3504;52.616;13.238;2023-06-04T22:54:09;14.00;52.73
6930;DHT22;3504;52.616;13.238;2023-06-04T22:59:09;13.93;55.10
6930;DHT22;3504;52.616;13.238;2023-06-04T23:04:10;13.76;54.68
6930;DHT22;3504;52.616;13.238;2023-06-04T23:09:11;13.71;54.08
6930;DHT22;3504;52.616;13.238;2023-06-04T23:14:12;13.58;56.06
6930;DHT22;3504;52.616;13.238;2023-06-04T23:19:13;13.46;53.91
6930;DHT22;3504;52.616;13.238;2023-06-04T23:24:13;13.39;53.94
6930;DHT22;3504;52.616;13.238;2023-06-04T23:29:18;13.31;56.23
6930;DHT22;3504;52.616;13.238;2023-06-04T23:34:19;13.14;56.35
6930;DHT22;3504;52.616;13.238;2023-06-04T23:39:19;13.01;56.65
6930;DHT22;3504;52.616;13.238;2023-06-04T23:44:20;12.84;56.15
6930;DHT22;3504;52.616;13.238;2023-06-04T23:49:21;12.74;55.97
6930;DHT22;3504;52.616;13.238;2023-06-04T23:54:21;12.66;55.76
6930;DHT22;3504;52.616;13.238;2023-06-04T23:59:22;12.59;55.74
